Time;durP1;ratioP1;P1;durP2;ratioP2;P2;SDS_P1;SDS_P2;PMS_P1;PMS_P2;Temp;Humidity;BMP_temperature;BMP_pressure;BME280_temperature;BME280_humidity;BME280_pressure;Samples;Min_cycle;Max_cycle;Signal;HPM_P1;HPM_P2
2021/03/04 00:07:29;;;;;;;2.60;1.60;;;;;;;;;;4183180;34;20130;-57
2021/03/04 00:09:55;;;;;;;3.55;1.70;;;;;;;;;;4188289;34;20138;-57
2021/03/04 00:12:21;;;;;;;2.87;1.67;;;;;;;;;;4165004;34;20531;-57
2021/03/04 00:14:47;;;;;;;5.12;1.80;;;;;;;;;;4171740;34;20093;-57
2021/03/04 00:17:13;;;;;;;1.92;1.60;;;;;;;;;;4178508;34;20095;-56
2021/03/04 00:19:39;;;;;;;3.60;1.77;;;;;;;;;;4178409;34;20122;-55
2021/03/04 00:22:05;;;;;;;2.47;1.67;;;;;;;;;;4177774;34;20538;-58
2021/03/04 00:24:31;;;;;;;3.28;2.00;;;;;;;;;;4164790;34;20122;-57
2021/03/04 00:26:57;;;;;;;3.15;1.73;;;;;;;;;;4163120;34;20153;-55
2021/03/04 00:29:23;;;;;;;3.53;1.85;;;;;;;;;;4163297;34;20119;-57
2021/03/04 00:31:49;;;;;;;2.95;1.70;;;;;;;;;;4164722;34;20123;-57
2021/03/04 00:34:15;;;;;;;2.10;1.50;;;;;;;;;;4164609;34;20125;-57
2021/03/04 00:36:41;;;;;;;2.12;1.65;;;;;;;;;;4163182;34;20102;-57
2021/03/04 00:39:07;;;;;;;3.17;1.83;;;;;;;;;;4164598;34;20197;-57
2021/03/04 00:41:34;;;;;;;3.70;1.87;;;;;;;;;;4177663;34;20111;-57
2021/03/04 00:44:00;;;;;;;2.85;1.80;;;;;;;;;;4178134;34;20106;-57
2021/03/04 00:46:26;;;;;;;4.20;1.75;;;;;;;;;;4178059;34;20102;-57
2021/03/04 00:48:52;;;;;;;2.50;1.90;;;;;;;;;;4178417;34;20547;-57
2021/03/04 00:51:18;;;;;;;5.90;2.00;;;;;;;;;;4178030;34;20120;-57
2021/03/04 00:53:44;;;;;;;1.85;1.42;;;;;;;;;;4178116;34;20114;-57
2021/03/04 00:56:10;;;;;;;4.15;1.90;;;;;;;;;;4177928;34;20205;-55
2021/03/04 00:58:36;;;;;;;4.07;2.10;;;;;;;;;;4176704;34;20667;-56
2021/03/04 01:01:03;;;;;;;3.08;1.95;;;;;;;;;;4177880;34;20103;-57
2021/03/04 01:03:29;;;;;;;4.65;1.92;;;;;;;;;;4176639;34;20133;-57
2021/03/04 01:05:55;;;;;;;3.17;1.90;;;;;;;;;;4173888;34;20219;-57
2021/03/04 01:08:21;;;;;;;2.45;1.60;;;;;;;;;;4164333;34;20169;-55
2021/03/04 01:10:47;;;;;;;2.90;1.85;;;;;;;;;;4164127;34;20153;-55
2021/03/04 01:13:13;;;;;;;2.87;2.05;;;;;;;;;;4164267;34;20193;-55
2021/03/04 01:15:39;;;;;;;2.95;1.80;;;;;;;;;;4164189;34;20444;-57
2021/03/04 01:18:05;;;;;;;4.43;1.98;;;;;;;;;;4164257;34;20107;-57
2021/03/04 01:20:31;;;;;;;3.30;1.83;;;;;;;;;;4174016;34;20106;-55
2021/03/04 01:22:57;;;;;;;4.20;1.90;;;;;;;;;;4164247;34;20183;-56
2021/03/04 01:25:23;;;;;;;4.72;1.90;;;;;;;;;;4164040;34;20554;-56
2021/03/04 01:27:51;;;;;;;4.62;1.92;;;;;;;;;;4164144;34;20141;-54
2021/03/04 01:30:21;;;;;;;3.53;2.17;;;;;;;;;;4164080;34;20111;-55
2021/03/04 01:32:47;;;;;;;2.17;1.62;;;;;;;;;;4163417;34;20129;-56
2021/03/04 01:35:13;;;;;;;2.72;1.80;;;;;;;;;;4164188;34;20135;-56
2021/03/04 01:37:39;;;;;;;4.25;1.87;;;;;;;;;;4174070;34;20186;-55
2021/03/04 01:40:11;;;;;;;5.05;2.17;;;;;;;;;;4173929;34;20463;-55
2021/03/04 01:42:37;;;;;;;2.97;1.65;;;;;;;;;;4162665;34;20107;-54
2021/03/04 01:45:04;;;;;;;2.15;1.77;;;;;;;;;;4163958;34;20573;-54
2021/03/04 01:47:30;;;;;;;3.95;2.17;;;;;;;;;;4162664;34;20130;-57
2021/03/04 01:49:56;;;;;;;4.40;2.17;;;;;;;;;;4151644;34;20142;-55
2021/03/04 01:52:22;;;;;;;6.32;2.20;;;;;;;;;;4162515;34;20528;-54
2021/03/04 01:54:48;;;;;;;3.70;2.03;;;;;;;;;;4162557;34;20100;-57
2021/03/04 01:57:14;;;;;;;3.17;1.87;;;;;;;;;;4162441;34;20204;-55
2021/03/04 01:59:40;;;;;;;4.43;2.05;;;;;;;;;;4162590;34;20119;-54
2021/03/04 02:02:06;;;;;;;3.65;2.17;;;;;;;;;;4163758;34;20116;-56
2021/03/04 02:04:32;;;;;;;4.82;1.90;;;;;;;;;;4163930;34;20107;-55
2021/03/04 02:07:05;;;;;;;5.07;2.08;;;;;;;;;;4174487;34;20117;-57
2021/03/04 02:09:31;;;;;;;5.05;2.47;;;;;;;;;;4165044;34;20134;-56
2021/03/04 02:12:08;;;;;;;5.47;2.30;;;;;;;;;;4142141;34;20133;-57
2021/03/04 02:14:37;;;;;;;5.53;2.30;;;;;;;;;;4164885;34;20122;-57
2021/03/04 02:17:06;;;;;;;5.07;2.20;;;;;;;;;;4153707;34;20847;-55
2021/03/04 02:19:44;;;;;;;5.45;2.20;;;;;;;;;;4153590;34;20146;-55
2021/03/04 02:22:47;;;;;;;4.57;2.30;;;;;;;;;;4177308;34;20499;-55
2021/03/04 02:25:16;;;;;;;4.00;2.30;;;;;;;;;;4177464;34;20134;-57
2021/03/04 02:27:41;;;;;;;4.15;2.40;;;;;;;;;;4177312;34;20187;-55
2021/03/04 02:30:15;;;;;;;3.03;2.30;;;;;;;;;;4141912;34;20198;-55
2021/03/04 02:32:43;;;;;;;3.95;2.45;;;;;;;;;;4164655;34;20132;-57
2021/03/04 02:35:17;;;;;;;5.35;2.45;;;;;;;;;;4164756;34;20288;-59
2021/03/04 02:37:46;;;;;;;2.53;2.03;;;;;;;;;;4164706;34;20206;-58
2021/03/04 02:40:17;;;;;;;4.40;2.90;;;;;;;;;;4153921;34;20170;-57
2021/03/04 02:42:44;;;;;;;3.83;2.45;;;;;;;;;;4175160;34;20213;-56
2021/03/04 02:45:10;;;;;;;3.17;2.10;;;;;;;;;;4153094;34;20291;-61
2021/03/04 02:47:39;;;;;;;3.17;2.03;;;;;;;;;;4164754;34;20120;-52
2021/03/04 02:50:09;;;;;;;4.65;2.45;;;;;;;;;;4153042;34;20190;-55
2021/03/04 02:52:35;;;;;;;5.22;2.60;;;;;;;;;;4177092;34;20106;-55
2021/03/04 02:55:01;;;;;;;3.55;1.73;;;;;;;;;;4176796;34;20128;-55
2021/03/04 02:57:27;;;;;;;4.25;2.40;;;;;;;;;;4164371;34;20632;-57
2021/03/04 02:59:53;;;;;;;5.22;2.22;;;;;;;;;;4153028;34;20130;-58
2021/03/04 03:02:19;;;;;;;4.05;2.28;;;;;;;;;;4152900;34;20170;-58
2021/03/04 03:04:45;;;;;;;3.20;2.30;;;;;;;;;;4152910;34;20133;-58
2021/03/04 03:07:10;;;;;;;3.20;2.03;;;;;;;;;;4152883;34;20122;-60
2021/03/04 03:09:41;;;;;;;4.68;2.30;;;;;;;;;;4164151;34;20182;-60
2021/03/04 03:12:08;;;;;;;2.90;2.08;;;;;;;;;;4175654;34;20466;-61
2021/03/04 03:14:34;;;;;;;3.92;2.22;;;;;;;;;;4176787;34;20467;-61
2021/03/04 03:17:00;;;;;;;3.47;2.28;;;;;;;;;;4176599;34;20126;-61
2021/03/04 03:19:26;;;;;;;2.53;2.08;;;;;;;;;;4164127;34;20106;-60
2021/03/04 03:21:52;;;;;;;3.35;2.08;;;;;;;;;;4175418;34;20225;-63
2021/03/04 03:24:18;;;;;;;4.53;2.45;;;;;;;;;;4175347;34;20118;-58
2021/03/04 03:26:44;;;;;;;3.40;2.30;;;;;;;;;;4176549;34;20554;-58
2021/03/04 03:29:10;;;;;;;3.67;1.98;;;;;;;;;;4176919;34;20118;-58
2021/03/04 03:31:36;;;;;;;7.75;2.53;;;;;;;;;;4175069;34;20137;-58
2021/03/04 03:34:03;;;;;;;7.30;2.70;;;;;;;;;;4163851;34;20681;-58
2021/03/04 03:36:29;;;;;;;3.83;1.90;;;;;;;;;;4175081;34;20163;-57
2021/03/04 03:38:55;;;;;;;3.90;2.60;;;;;;;;;;4175186;34;20134;-51
2021/03/04 03:41:22;;;;;;;3.08;2.03;;;;;;;;;;4163840;34;20478;-56
2021/03/04 03:43:48;;;;;;;4.32;2.37;;;;;;;;;;4176569;34;20098;-54
2021/03/04 03:46:14;;;;;;;3.92;2.17;;;;;;;;;;4163574;34;20547;-54
2021/03/04 03:48:40;;;;;;;4.60;2.72;;;;;;;;;;4163766;34;20235;-59
2021/03/04 03:51:06;;;;;;;4.43;2.58;;;;;;;;;;4174928;34;20137;-59
2021/03/04 03:53:35;;;;;;;4.00;2.75;;;;;;;;;;4163720;34;20125;-60
2021/03/04 03:56:01;;;;;;;4.70;2.70;;;;;;;;;;4163553;34;20107;-60
2021/03/04 03:58:27;;;;;;;4.65;2.53;;;;;;;;;;4177514;34;20083;-61
2021/03/04 04:00:56;;;;;;;4.75;2.75;;;;;;;;;;4177000;34;20210;-60
2021/03/04 04:03:23;;;;;;;3.60;2.20;;;;;;;;;;4177117;34;20679;-60
2021/03/04 04:05:49;;;;;;;4.15;2.62;;;;;;;;;;4176774;34;20119;-60
2021/03/04 04:08:15;;;;;;;3.15;2.70;;;;;;;;;;4177016;34;20114;-61
2021/03/04 04:10:41;;;;;;;4.55;2.97;;;;;;;;;;4178534;34;20142;-59
2021/03/04 04:13:07;;;;;;;5.65;2.78;;;;;;;;;;4176931;34;20119;-59
2021/03/04 04:15:33;;;;;;;5.50;2.50;;;;;;;;;;4165693;34;20106;-60
2021/03/04 04:18:01;;;;;;;6.70;2.62;;;;;;;;;;4165667;34;20142;-60
2021/03/04 04:20:26;;;;;;;4.45;2.67;;;;;;;;;;4165484;34;20099;-61
2021/03/04 04:22:53;;;;;;;5.12;2.85;;;;;;;;;;4176968;34;20129;-60
2021/03/04 04:25:20;;;;;;;3.75;2.70;;;;;;;;;;4178171;34;20512;-60
2021/03/04 04:27:54;;;;;;;3.78;2.25;;;;;;;;;;4177118;34;20532;-60
2021/03/04 04:30:20;;;;;;;5.85;2.92;;;;;;;;;;4178077;34;20150;-60
2021/03/04 04:32:46;;;;;;;3.97;2.70;;;;;;;;;;4178228;34;20129;-59
2021/03/04 04:35:13;;;;;;;4.12;2.65;;;;;;;;;;4178258;34;20467;-60
2021/03/04 04:37:39;;;;;;;5.25;2.28;;;;;;;;;;4178153;34;20134;-60
2021/03/04 04:40:06;;;;;;;4.82;2.72;;;;;;;;;;4177956;34;20529;-60
2021/03/04 04:42:32;;;;;;;4.45;2.78;;;;;;;;;;4178150;34;20109;-60
2021/03/04 04:44:58;;;;;;;4.55;2.60;;;;;;;;;;4178015;34;20594;-60
2021/03/04 04:47:24;;;;;;;4.40;2.95;;;;;;;;;;4178342;34;20203;-61
2021/03/04 04:49:50;;;;;;;6.60;3.10;;;;;;;;;;4178107;34;20109;-60
2021/03/04 04:52:16;;;;;;;4.90;2.95;;;;;;;;;;4178053;34;20118;-60
2021/03/04 04:54:42;;;;;;;4.00;2.85;;;;;;;;;;4178219;34;20122;-60
2021/03/04 04:57:08;;;;;;;5.93;3.00;;;;;;;;;;4177913;34;20122;-60
2021/03/04 04:59:34;;;;;;;5.53;3.22;;;;;;;;;;4176733;34;20394;-60
2021/03/04 05:02:00;;;;;;;5.57;2.90;;;;;;;;;;4177980;34;20556;-61
2021/03/04 05:04:26;;;;;;;4.37;3.08;;;;;;;;;;4176505;34;20153;-59
2021/03/04 05:06:52;;;;;;;5.05;3.08;;;;;;;;;;4176428;34;20461;-59
2021/03/04 05:09:18;;;;;;;4.57;3.28;;;;;;;;;;4177912;34;20094;-61
2021/03/04 05:11:44;;;;;;;5.15;3.20;;;;;;;;;;4177881;34;20271;-61
2021/03/04 05:14:09;;;;;;;4.75;3.05;;;;;;;;;;4177882;34;20110;-60
2021/03/04 05:16:35;;;;;;;5.82;2.90;;;;;;;;;;4177803;34;20142;-60
2021/03/04 05:19:01;;;;;;;3.90;2.50;;;;;;;;;;4177680;34;20554;-62
2021/03/04 05:21:27;;;;;;;3.83;2.78;;;;;;;;;;4177841;34;20145;-63
2021/03/04 05:23:53;;;;;;;4.82;3.08;;;;;;;;;;4177981;34;20132;-63
2021/03/04 05:26:19;;;;;;;4.62;2.80;;;;;;;;;;4176377;34;20118;-63
2021/03/04 05:28:45;;;;;;;4.32;3.12;;;;;;;;;;4177682;34;20125;-61
2021/03/04 05:31:11;;;;;;;6.50;3.15;;;;;;;;;;4178017;34;20102;-62
2021/03/04 05:33:37;;;;;;;5.78;3.42;;;;;;;;;;4177639;34;20538;-62
2021/03/04 05:36:03;;;;;;;4.95;3.22;;;;;;;;;;4177664;34;20491;-62
2021/03/04 05:38:30;;;;;;;6.70;3.50;;;;;;;;;;4176509;34;20126;-63
2021/03/04 05:40:56;;;;;;;6.30;3.58;;;;;;;;;;4178135;34;20107;-64
2021/03/04 05:43:22;;;;;;;7.93;3.90;;;;;;;;;;4164912;34;20141;-62
2021/03/04 05:45:49;;;;;;;5.28;3.53;;;;;;;;;;4164938;34;20110;-63
2021/03/04 05:48:18;;;;;;;10.15;4.10;;;;;;;;;;4177589;34;20133;-61
2021/03/04 05:50:50;;;;;;;5.75;3.90;;;;;;;;;;4164776;34;20098;-62
2021/03/04 05:53:19;;;;;;;6.80;3.80;;;;;;;;;;4176481;34;20115;-61
2021/03/04 05:55:45;;;;;;;5.97;3.53;;;;;;;;;;4176130;34;20107;-62
2021/03/04 05:58:11;;;;;;;5.93;3.72;;;;;;;;;;4164886;34;20117;-61
2021/03/04 06:00:44;;;;;;;5.78;3.15;;;;;;;;;;4177418;34;20598;-61
2021/03/04 06:03:10;;;;;;;8.82;3.72;;;;;;;;;;4177364;34;20137;-61
2021/03/04 06:05:37;;;;;;;6.32;3.80;;;;;;;;;;4176028;34;20110;-61
2021/03/04 06:08:03;;;;;;;11.57;8.68;;;;;;;;;;4177552;34;20122;-61
2021/03/04 06:10:30;;;;;;;6.20;3.90;;;;;;;;;;4177565;34;20439;-62
2021/03/04 06:12:59;;;;;;;4.78;3.30;;;;;;;;;;4175820;34;20102;-62
2021/03/04 06:15:26;;;;;;;6.12;3.60;;;;;;;;;;4177371;34;20133;-62
2021/03/04 06:17:55;;;;;;;6.15;4.05;;;;;;;;;;4177160;34;20086;-62
2021/03/04 06:20:21;;;;;;;6.10;3.85;;;;;;;;;;4164128;34;20136;-62
2021/03/04 06:22:47;;;;;;;5.95;3.55;;;;;;;;;;4177526;34;20142;-62
2021/03/04 06:25:14;;;;;;;7.43;3.62;;;;;;;;;;4177298;34;20166;-62
2021/03/04 06:27:41;;;;;;;3.85;2.97;;;;;;;;;;4177229;34;20128;-63
2021/03/04 06:30:11;;;;;;;4.50;2.87;;;;;;;;;;4177268;34;20110;-63
2021/03/04 06:32:39;;;;;;;4.87;3.10;;;;;;;;;;4177228;34;20444;-63
2021/03/04 06:35:12;;;;;;;5.95;2.90;;;;;;;;;;4175577;34;20097;-63
2021/03/04 06:37:42;;;;;;;4.25;2.62;;;;;;;;;;4176022;34;20232;-63
2021/03/04 06:40:31;;;;;;;5.45;3.03;;;;;;;;;;4177010;34;20122;-63
2021/03/04 06:42:56;;;;;;;4.47;2.87;;;;;;;;;;4177303;34;20459;-60
2021/03/04 06:45:27;;;;;;;4.32;2.80;;;;;;;;;;4176986;34;20214;-60
2021/03/04 06:48:04;;;;;;;5.03;2.50;;;;;;;;;;4177155;34;20451;-63
2021/03/04 06:50:30;;;;;;;5.55;3.03;;;;;;;;;;4177195;34;20156;-59
2021/03/04 06:52:56;;;;;;;4.43;2.72;;;;;;;;;;4176727;34;20102;-60
2021/03/04 06:55:22;;;;;;;4.68;2.70;;;;;;;;;;4175586;34;20110;-61
2021/03/04 06:58:01;;;;;;;4.80;3.10;;;;;;;;;;4177147;34;20102;-59
2021/03/04 07:00:27;;;;;;;3.50;2.50;;;;;;;;;;4175427;34;20590;-58
2021/03/04 07:02:57;;;;;;;3.97;2.40;;;;;;;;;;4164113;34;20095;-59
2021/03/04 07:05:24;;;;;;;3.72;2.58;;;;;;;;;;4175287;34;20576;-59
2021/03/04 07:07:54;;;;;;;4.72;2.20;;;;;;;;;;4175397;34;20137;-59
2021/03/04 07:10:22;;;;;;;4.20;2.60;;;;;;;;;;4175639;34;20141;-60
2021/03/04 07:12:48;;;;;;;4.05;2.22;;;;;;;;;;4176645;34;20187;-59
2021/03/04 07:15:15;;;;;;;4.82;2.90;;;;;;;;;;4176537;34;20113;-60
2021/03/04 07:17:42;;;;;;;5.53;2.47;;;;;;;;;;4176869;34;20122;-61
2021/03/04 07:20:11;;;;;;;3.47;2.42;;;;;;;;;;4164096;34;20090;-58
2021/03/04 07:22:37;;;;;;;3.20;2.30;;;;;;;;;;4163857;34;20154;-62
2021/03/04 07:25:03;;;;;;;3.58;2.65;;;;;;;;;;4163752;34;20211;-61
2021/03/04 07:27:29;;;;;;;5.25;2.37;;;;;;;;;;4175380;34;20125;-60
2021/03/04 07:29:55;;;;;;;4.35;2.35;;;;;;;;;;4163768;34;20114;-59
2021/03/04 07:32:22;;;;;;;5.37;2.83;;;;;;;;;;4178458;34;20110;-58
2021/03/04 07:34:48;;;;;;;4.70;2.62;;;;;;;;;;4165957;34;20133;-60
2021/03/04 07:37:18;;;;;;;3.55;2.50;;;;;;;;;;4177327;34;20610;-61
2021/03/04 07:39:46;;;;;;;3.40;2.33;;;;;;;;;;4177186;34;20779;-57
2021/03/04 07:42:21;;;;;;;3.20;2.50;;;;;;;;;;4178399;34;20137;-58
2021/03/04 07:44:47;;;;;;;6.20;3.10;;;;;;;;;;4178526;34;20122;-57
2021/03/04 07:47:13;;;;;;;5.07;2.60;;;;;;;;;;4176934;34;20126;-59
2021/03/04 07:49:41;;;;;;;3.47;2.20;;;;;;;;;;4177290;34;20127;-58
2021/03/04 07:52:21;;;;;;;3.62;2.53;;;;;;;;;;4178262;34;20119;-59
2021/03/04 07:54:56;;;;;;;4.25;3.12;;;;;;;;;;4165748;34;20546;-59
2021/03/04 07:57:27;;;;;;;2.95;2.20;;;;;;;;;;4178355;34;20098;-59
2021/03/04 07:59:56;;;;;;;3.75;2.47;;;;;;;;;;4165885;34;20479;-59
2021/03/04 08:02:22;;;;;;;4.18;2.53;;;;;;;;;;4178255;34;20616;-60
2021/03/04 08:04:49;;;;;;;4.28;2.80;;;;;;;;;;4165687;34;20108;-59
2021/03/04 08:07:27;;;;;;;4.10;2.53;;;;;;;;;;4178253;34;20109;-59
2021/03/04 08:10:04;;;;;;;3.22;2.78;;;;;;;;;;4178183;34;20098;-59
2021/03/04 08:12:30;;;;;;;5.78;2.92;;;;;;;;;;4178175;34;20486;-58
2021/03/04 08:14:59;;;;;;;4.30;2.62;;;;;;;;;;4165419;34;20111;-59
2021/03/04 08:17:38;;;;;;;5.15;2.80;;;;;;;;;;4178227;34;20620;-57
2021/03/04 08:20:16;;;;;;;3.83;2.47;;;;;;;;;;4178180;34;20122;-56
2021/03/04 08:22:49;;;;;;;4.68;2.40;;;;;;;;;;4176850;34;20565;-57
2021/03/04 08:25:20;;;;;;;5.20;2.67;;;;;;;;;;4176900;34;20164;-58
2021/03/04 08:27:46;;;;;;;4.28;2.67;;;;;;;;;;4178324;34;20214;-58
2021/03/04 08:30:13;;;;;;;4.15;2.90;;;;;;;;;;4176749;34;20515;-61
2021/03/04 08:32:47;;;;;;;4.20;2.78;;;;;;;;;;4178231;34;20520;-64
2021/03/04 08:35:17;;;;;;;5.87;3.12;;;;;;;;;;4165294;34;20156;-61
2021/03/04 08:37:43;;;;;;;4.47;2.97;;;;;;;;;;4177882;34;20107;-62
2021/03/04 08:40:10;;;;;;;3.85;2.70;;;;;;;;;;4176990;34;20124;-66
2021/03/04 08:42:36;;;;;;;5.20;3.08;;;;;;;;;;4176229;34;20197;-61
2021/03/04 08:45:03;;;;;;;5.55;3.25;;;;;;;;;;4177920;34;20137;-63
2021/03/04 08:47:29;;;;;;;4.40;2.80;;;;;;;;;;4177951;34;20122;-62
2021/03/04 08:49:56;;;;;;;6.20;2.95;;;;;;;;;;4177916;34;20126;-61
2021/03/04 08:52:24;;;;;;;4.60;2.95;;;;;;;;;;4178130;34;20110;-61
2021/03/04 08:54:55;;;;;;;4.57;2.70;;;;;;;;;;4176662;34;20110;-64
2021/03/04 08:57:25;;;;;;;3.30;2.83;;;;;;;;;;4177886;34;20133;-63
2021/03/04 09:00:16;;;;;;;4.32;2.90;;;;;;;;;;4178137;34;20098;-63
2021/03/04 09:02:45;;;;;;;4.20;2.75;;;;;;;;;;4177946;34;20099;-58
2021/03/04 09:05:14;;;;;;;3.97;2.90;;;;;;;;;;4176255;34;20453;-59
2021/03/04 09:07:41;;;;;;;3.65;2.60;;;;;;;;;;4176300;34;20122;-60
2021/03/04 09:10:08;;;;;;;4.93;2.83;;;;;;;;;;4177735;34;20160;-57
2021/03/04 09:12:44;;;;;;;6.30;3.42;;;;;;;;;;4177754;34;20134;-57
2021/03/04 09:15:11;;;;;;;5.43;3.05;;;;;;;;;;4177927;34;20645;-58
2021/03/04 09:17:44;;;;;;;5.55;3.80;;;;;;;;;;4177638;34;20117;-59
2021/03/04 09:20:14;;;;;;;4.10;3.12;;;;;;;;;;4177894;34;20439;-58
2021/03/04 09:22:41;;;;;;;4.68;3.40;;;;;;;;;;4177554;34;20126;-58
2021/03/04 09:25:11;;;;;;;6.25;3.53;;;;;;;;;;4164830;34;20189;-58
2021/03/04 09:27:38;;;;;;;4.18;3.33;;;;;;;;;;4176157;34;20122;-58
2021/03/04 09:30:06;;;;;;;4.43;3.05;;;;;;;;;;4176125;34;20099;-57
2021/03/04 09:32:32;;;;;;;3.97;2.78;;;;;;;;;;4177844;34;20098;-58
2021/03/04 09:34:58;;;;;;;5.30;3.25;;;;;;;;;;4176078;34;20095;-59
2021/03/04 09:37:26;;;;;;;6.07;3.90;;;;;;;;;;4177706;34;20105;-57
2021/03/04 09:39:54;;;;;;;4.18;3.03;;;;;;;;;;4177579;34;20556;-58
2021/03/04 09:42:41;;;;;;;4.03;3.17;;;;;;;;;;4177467;34;20231;-59
2021/03/04 09:45:09;;;;;;;4.45;2.70;;;;;;;;;;4177350;34;20098;-60
2021/03/04 09:47:35;;;;;;;4.82;3.25;;;;;;;;;;4176121;34;20197;-59
2021/03/04 09:50:04;;;;;;;5.95;3.40;;;;;;;;;;4176145;34;20530;-59
2021/03/04 09:52:31;;;;;;;5.40;3.12;;;;;;;;;;4174128;34;20182;-58
2021/03/04 09:55:11;;;;;;;3.92;3.28;;;;;;;;;;4176537;34;20218;-62
2021/03/04 09:57:40;;;;;;;4.93;3.33;;;;;;;;;;4175819;34;20460;-64
2021/03/04 10:00:18;;;;;;;4.18;3.55;;;;;;;;;;4175570;34;20220;-59
2021/03/04 10:02:48;;;;;;;3.70;3.00;;;;;;;;;;4174480;34;20094;-60
2021/03/04 10:05:16;;;;;;;3.78;3.42;;;;;;;;;;4174462;34;20122;-57
2021/03/04 10:07:42;;;;;;;6.03;3.22;;;;;;;;;;4176350;34;20134;-57
2021/03/04 10:10:16;;;;;;;5.65;3.35;;;;;;;;;;4177385;34;20106;-59
2021/03/04 10:12:56;;;;;;;3.97;3.30;;;;;;;;;;4177226;34;20157;-56
2021/03/04 10:15:26;;;;;;;4.87;2.95;;;;;;;;;;4177363;34;20217;-59
2021/03/04 10:17:52;;;;;;;5.43;3.37;;;;;;;;;;4177268;34;20122;-59
2021/03/04 10:20:18;;;;;;;3.62;3.20;;;;;;;;;;4177157;34;20482;-58
2021/03/04 10:22:44;;;;;;;5.75;3.10;;;;;;;;;;4175871;34;20800;-59
2021/03/04 10:25:10;;;;;;;4.90;3.53;;;;;;;;;;4177180;34;20109;-55
2021/03/04 10:27:39;;;;;;;3.80;2.95;;;;;;;;;;4175751;34;20134;-56
2021/03/04 10:30:09;;;;;;;6.12;3.37;;;;;;;;;;4177060;34;20120;-57
2021/03/04 10:32:35;;;;;;;7.22;4.15;;;;;;;;;;4177027;34;20226;-54
2021/03/04 10:35:09;;;;;;;4.37;3.22;;;;;;;;;;4164258;34;20127;-55
2021/03/04 10:37:35;;;;;;;5.05;3.28;;;;;;;;;;4175770;34;20226;-55
2021/03/04 10:40:03;;;;;;;4.47;3.25;;;;;;;;;;4175621;34;20502;-57
2021/03/04 10:42:29;;;;;;;4.15;2.95;;;;;;;;;;4177008;34;20187;-53
2021/03/04 10:44:59;;;;;;;5.72;2.95;;;;;;;;;;4176844;34;20110;-60
2021/03/04 10:47:28;;;;;;;5.12;3.10;;;;;;;;;;4176915;34;20177;-59
2021/03/04 10:49:55;;;;;;;5.30;3.00;;;;;;;;;;4176903;34;20279;-56
2021/03/04 10:52:21;;;;;;;5.22;3.28;;;;;;;;;;4175564;34;20189;-56
2021/03/04 10:54:48;;;;;;;4.12;2.92;;;;;;;;;;4177049;34;20098;-56
2021/03/04 10:57:13;;;;;;;4.53;3.30;;;;;;;;;;4164121;34;20471;-55
2021/03/04 10:59:39;;;;;;;4.35;2.80;;;;;;;;;;4164187;34;20109;-59
2021/03/04 11:02:05;;;;;;;5.62;3.17;;;;;;;;;;4176613;34;20299;-57
2021/03/04 11:04:31;;;;;;;5.15;2.83;;;;;;;;;;4176844;34;20137;-56
2021/03/04 11:06:57;;;;;;;3.42;2.47;;;;;;;;;;4176352;34;20563;-56
2021/03/04 11:09:23;;;;;;;5.00;3.17;;;;;;;;;;4176765;34;20121;-55
2021/03/04 11:11:49;;;;;;;4.07;2.92;;;;;;;;;;4176694;34;20137;-56
2021/03/04 11:14:15;;;;;;;4.50;3.12;;;;;;;;;;4176641;34;20213;-55
2021/03/04 11:16:41;;;;;;;2.70;2.15;;;;;;;;;;4176917;34;20185;-55
2021/03/04 11:19:09;;;;;;;3.90;2.80;;;;;;;;;;4175297;34;20623;-56
2021/03/04 11:21:35;;;;;;;3.25;2.65;;;;;;;;;;4176748;34;20125;-51
2021/03/04 11:24:01;;;;;;;5.03;2.53;;;;;;;;;;4175213;34;20517;-53
2021/03/04 11:26:27;;;;;;;4.28;3.17;;;;;;;;;;4176618;34;20521;-53
2021/03/04 11:28:53;;;;;;;3.70;2.70;;;;;;;;;;4176457;34;20114;-55
2021/03/04 11:31:19;;;;;;;4.55;2.90;;;;;;;;;;4175124;34;20145;-54
2021/03/04 11:33:45;;;;;;;6.97;3.10;;;;;;;;;;4176412;34;20519;-56
2021/03/04 11:36:11;;;;;;;4.40;2.90;;;;;;;;;;4176494;34;20130;-54
2021/03/04 11:38:37;;;;;;;3.72;2.78;;;;;;;;;;4176449;34;20133;-53
2021/03/04 11:41:03;;;;;;;4.53;3.42;;;;;;;;;;4176310;34;20584;-52
2021/03/04 11:43:30;;;;;;;3.80;2.60;;;;;;;;;;4176445;34;20238;-54
2021/03/04 11:45:56;;;;;;;4.90;3.08;;;;;;;;;;4176284;34;20213;-53
2021/03/04 11:48:21;;;;;;;3.78;3.20;;;;;;;;;;4176510;34;20470;-54
2021/03/04 11:50:47;;;;;;;4.43;3.00;;;;;;;;;;4176531;34;20219;-53
2021/03/04 11:53:13;;;;;;;3.58;2.80;;;;;;;;;;4174979;34;20210;-56
2021/03/04 11:55:39;;;;;;;4.25;2.85;;;;;;;;;;4176264;34;20118;-56
2021/03/04 11:58:05;;;;;;;7.35;2.90;;;;;;;;;;4176380;34;20124;-58
2021/03/04 12:00:31;;;;;;;3.83;2.60;;;;;;;;;;4176221;34;20463;-58
2021/03/04 12:02:57;;;;;;;3.83;2.97;;;;;;;;;;4176307;34;20098;-57
2021/03/04 12:05:23;;;;;;;5.55;3.12;;;;;;;;;;4176147;34;20110;-60
2021/03/04 12:07:49;;;;;;;5.70;3.30;;;;;;;;;;4176271;34;20210;-60
2021/03/04 12:10:15;;;;;;;4.37;3.12;;;;;;;;;;4176198;34;20220;-59
2021/03/04 12:12:41;;;;;;;3.92;2.10;;;;;;;;;;4174854;34;20107;-58
2021/03/04 12:15:08;;;;;;;4.22;2.75;;;;;;;;;;4176072;34;20115;-59
2021/03/04 12:17:34;;;;;;;3.75;3.10;;;;;;;;;;4176798;34;20534;-59
2021/03/04 12:20:00;;;;;;;3.60;2.78;;;;;;;;;;4178271;34;20561;-58
2021/03/04 12:22:26;;;;;;;3.78;2.60;;;;;;;;;;4178451;34;20106;-58
2021/03/04 12:24:52;;;;;;;3.75;2.87;;;;;;;;;;4178391;34;20561;-58
2021/03/04 12:27:18;;;;;;;5.80;2.80;;;;;;;;;;4178320;34;20145;-59
2021/03/04 12:29:43;;;;;;;4.75;2.50;;;;;;;;;;4176855;34;20122;-59
2021/03/04 12:32:09;;;;;;;6.40;3.03;;;;;;;;;;4178263;34;20098;-58
2021/03/04 12:34:35;;;;;;;4.07;2.70;;;;;;;;;;4178183;34;20523;-58
2021/03/04 12:37:01;;;;;;;4.22;2.75;;;;;;;;;;4178120;34;20511;-58
2021/03/04 12:39:27;;;;;;;4.87;2.45;;;;;;;;;;4178534;34;20111;-57
2021/03/04 12:41:54;;;;;;;4.60;2.67;;;;;;;;;;4176697;34;20198;-58
2021/03/04 12:44:20;;;;;;;4.70;3.08;;;;;;;;;;4178079;34;20187;-57
2021/03/04 12:46:46;;;;;;;4.37;3.00;;;;;;;;;;4178019;34;20125;-58
2021/03/04 12:49:12;;;;;;;7.43;3.35;;;;;;;;;;4178111;34;20581;-56
2021/03/04 12:51:38;;;;;;;3.50;2.72;;;;;;;;;;4178079;34;20122;-57
2021/03/04 12:54:03;;;;;;;4.05;2.90;;;;;;;;;;4178233;34;20139;-58
2021/03/04 12:56:29;;;;;;;4.40;2.90;;;;;;;;;;4178021;34;20115;-57
2021/03/04 12:58:55;;;;;;;5.03;3.03;;;;;;;;;;4178022;34;20114;-58
2021/03/04 13:01:21;;;;;;;4.12;2.83;;;;;;;;;;4176726;34;20103;-57
2021/03/04 13:03:47;;;;;;;5.15;2.95;;;;;;;;;;4178034;34;20109;-58
2021/03/04 13:06:13;;;;;;;4.00;2.35;;;;;;;;;;4176396;34;20211;-58
2021/03/04 13:08:39;;;;;;;6.30;3.42;;;;;;;;;;4176585;34;20210;-58
2021/03/04 13:11:05;;;;;;;4.45;2.90;;;;;;;;;;4177739;34;20518;-58
2021/03/04 13:13:31;;;;;;;3.97;2.92;;;;;;;;;;4177845;34;20189;-60
2021/03/04 13:15:57;;;;;;;6.35;2.90;;;;;;;;;;4177783;34;20204;-59
2021/03/04 13:18:23;;;;;;;4.50;2.58;;;;;;;;;;4177895;34;20142;-59
2021/03/04 13:20:49;;;;;;;3.25;2.45;;;;;;;;;;4176594;34;20463;-58
2021/03/04 13:23:15;;;;;;;6.12;3.12;;;;;;;;;;4176740;34;20201;-58
2021/03/04 13:25:41;;;;;;;4.60;2.92;;;;;;;;;;4177736;34;20459;-58
2021/03/04 13:28:06;;;;;;;4.40;3.05;;;;;;;;;;4177954;34;20103;-58
2021/03/04 13:30:32;;;;;;;3.95;2.67;;;;;;;;;;4177679;34;20456;-59
2021/03/04 13:32:58;;;;;;;5.32;3.28;;;;;;;;;;4178078;34;20519;-59
2021/03/04 13:35:24;;;;;;;5.87;2.87;;;;;;;;;;4177540;34;20126;-59
2021/03/04 13:37:50;;;;;;;4.15;2.85;;;;;;;;;;4177684;34;20452;-59
2021/03/04 13:40:16;;;;;;;6.07;3.00;;;;;;;;;;4177819;34;20153;-59
2021/03/04 13:42:42;;;;;;;4.37;2.70;;;;;;;;;;4177791;34;20210;-59
2021/03/04 13:45:08;;;;;;;4.62;2.87;;;;;;;;;;4177781;34;20534;-60
2021/03/04 13:47:37;;;;;;;4.68;2.85;;;;;;;;;;4177850;34;20146;-58
2021/03/04 13:50:04;;;;;;;6.28;3.28;;;;;;;;;;4177788;34;20141;-58
2021/03/04 13:52:31;;;;;;;4.72;2.70;;;;;;;;;;4177540;34;20102;-57
2021/03/04 13:54:59;;;;;;;4.18;2.80;;;;;;;;;;4177427;34;20362;-58
2021/03/04 13:57:28;;;;;;;6.43;3.05;;;;;;;;;;4177504;34;20123;-59
2021/03/04 14:00:02;;;;;;;5.80;4.45;;;;;;;;;;4177695;34;20111;-58
2021/03/04 14:02:28;;;;;;;5.25;2.97;;;;;;;;;;4177681;34;20163;-58
2021/03/04 14:04:54;;;;;;;4.40;3.12;;;;;;;;;;4177762;34;20110;-58
2021/03/04 14:07:20;;;;;;;5.82;2.85;;;;;;;;;;4177472;34;20479;-57
2021/03/04 14:09:46;;;;;;;6.37;2.80;;;;;;;;;;4177548;34;20221;-59
2021/03/04 14:12:12;;;;;;;7.28;3.58;;;;;;;;;;4177290;34;20497;-58
2021/03/04 14:14:38;;;;;;;5.25;3.22;;;;;;;;;;4177689;34;20217;-61
2021/03/04 14:17:10;;;;;;;4.40;2.87;;;;;;;;;;4177391;34;20122;-63
2021/03/04 14:19:38;;;;;;;6.80;3.12;;;;;;;;;;4177326;34;20514;-60
2021/03/04 14:22:04;;;;;;;4.47;2.67;;;;;;;;;;4177246;34;20138;-59
2021/03/04 14:24:30;;;;;;;4.22;2.90;;;;;;;;;;4177546;34;20512;-61
2021/03/04 14:26:56;;;;;;;6.18;2.83;;;;;;;;;;4177177;34;20103;-60
2021/03/04 14:29:22;;;;;;;4.53;2.55;;;;;;;;;;4177226;34;20098;-63
2021/03/04 14:31:48;;;;;;;4.15;2.58;;;;;;;;;;4176053;34;20121;-62
2021/03/04 14:34:14;;;;;;;4.93;2.85;;;;;;;;;;4177423;34;20118;-61
2021/03/04 14:36:41;;;;;;;4.07;2.42;;;;;;;;;;4177119;34;20141;-59
2021/03/04 14:39:07;;;;;;;5.40;2.60;;;;;;;;;;4177428;34;20094;-60
2021/03/04 14:41:33;;;;;;;3.95;2.58;;;;;;;;;;4176482;34;20111;-60
2021/03/04 14:43:59;;;;;;;4.55;2.87;;;;;;;;;;4177417;34;20114;-59
2021/03/04 14:46:25;;;;;;;4.22;2.72;;;;;;;;;;4177007;34;20499;-60
2021/03/04 14:48:54;;;;;;;5.60;2.90;;;;;;;;;;4177222;34;20110;-61
2021/03/04 14:51:20;;;;;;;4.95;2.80;;;;;;;;;;4175575;34;20186;-60